Time;durP1;ratioP1;P1;durP2;ratioP2;P2;SDS_P1;SDS_P2;PMS_P1;PMS_P2;Temp;Humidity;BMP_temperature;BMP_pressure;BME280_temperature;BME280_humidity;BME280_pressure;Samples;Min_cycle;Max_cycle;Signal;HPM_P1;HPM_P2
2023/04/17 00:00:25;;;;;;;10.40;10.00;;;18.70;58.10;;;;;;5073774;28;20844;-57
2023/04/17 00:02:52;;;;;;;10.67;10.00;;;18.70;58.10;;;;;;5108627;28;20535;-53
2023/04/17 00:05:22;;;;;;;11.33;10.73;;;18.70;58.10;;;;;;5112653;28;20480;-53
2023/04/17 00:07:49;;;;;;;10.80;10.30;;;18.70;58.10;;;;;;5112781;28;20496;-56
2023/04/17 00:10:16;;;;;;;11.40;10.90;;;18.70;58.10;;;;;;5112872;28;20484;-55
2023/04/17 00:12:42;;;;;;;11.17;10.57;;;18.70;58.10;;;;;;5110888;28;20526;-55
2023/04/17 00:15:10;;;;;;;10.33;9.87;;;18.70;58.10;;;;;;5112140;28;20481;-54
2023/04/17 00:17:37;;;;;;;11.00;10.60;;;18.70;58.10;;;;;;5112294;28;20892;-54
2023/04/17 00:20:06;;;;;;;12.33;11.63;;;18.70;58.10;;;;;;5113120;28;20477;-56
2023/04/17 00:22:35;;;;;;;10.60;10.10;;;18.70;58.10;;;;;;5100532;28;20951;-55
2023/04/17 00:25:01;;;;;;;10.37;9.87;;;18.70;58.10;;;;;;5097911;28;20450;-57
2023/04/17 00:27:28;;;;;;;11.60;11.00;;;18.70;58.10;;;;;;5091948;28;20489;-58
2023/04/17 00:29:55;;;;;;;10.47;10.07;;;18.70;58.10;;;;;;5092611;28;20473;-55
2023/04/17 00:32:22;;;;;;;10.97;10.40;;;18.70;58.10;;;;;;5105064;28;20872;-57
2023/04/17 00:34:50;;;;;;;9.80;9.40;;;18.70;58.10;;;;;;5113015;28;20477;-54
2023/04/17 00:37:17;;;;;;;11.23;10.63;;;18.70;58.10;;;;;;5114487;28;20525;-57
2023/04/17 00:39:45;;;;;;;10.70;10.17;;;18.70;58.20;;;;;;5116619;28;20473;-56
2023/04/17 00:42:12;;;;;;;12.40;11.60;;;18.70;58.20;;;;;;5105255;28;20473;-57
2023/04/17 00:44:39;;;;;;;11.17;10.57;;;18.70;58.20;;;;;;5095892;28;20466;-54
2023/04/17 00:47:05;;;;;;;11.93;11.10;;;18.70;58.20;;;;;;5095757;28;20477;-55
2023/04/17 00:49:33;;;;;;;11.43;10.73;;;18.60;58.10;;;;;;5096074;28;20486;-57
2023/04/17 00:52:00;;;;;;;12.03;11.33;;;18.70;58.20;;;;;;5105139;28;20441;-54
2023/04/17 00:54:27;;;;;;;11.57;10.87;;;18.70;58.20;;;;;;5116411;28;20859;-57
2023/04/17 00:56:57;;;;;;;11.50;10.90;;;18.70;58.20;;;;;;5116279;28;20528;-54
2023/04/17 00:59:25;;;;;;;10.60;10.03;;;18.70;58.20;;;;;;5116796;28;20909;-55
2023/04/17 01:01:51;;;;;;;11.53;10.93;;;18.70;58.20;;;;;;5108935;28;20477;-56
2023/04/17 01:04:18;;;;;;;11.27;10.57;;;18.70;58.20;;;;;;5105650;28;20469;-56
2023/04/17 01:06:46;;;;;;;11.30;10.80;;;18.70;58.20;;;;;;5116190;28;20529;-53
2023/04/17 01:09:14;;;;;;;10.90;10.40;;;18.70;58.20;;;;;;5115907;28;20489;-56
2023/04/17 01:11:40;;;;;;;11.00;10.40;;;18.60;58.10;;;;;;5109829;28;20818;-54
2023/04/17 01:14:09;;;;;;;11.70;11.10;;;18.60;58.10;;;;;;5095699;28;20872;-57
2023/04/17 01:16:38;;;;;;;11.10;10.50;;;18.70;58.30;;;;;;5095654;28;20481;-53
2023/04/17 01:19:05;;;;;;;11.87;11.10;;;18.60;58.20;;;;;;5096278;28;20466;-54
2023/04/17 01:21:32;;;;;;;10.60;10.10;;;18.60;58.20;;;;;;5101031;28;20465;-54
2023/04/17 01:24:02;;;;;;;12.50;11.80;;;18.60;58.20;;;;;;5117203;28;20438;-53
2023/04/17 01:26:31;;;;;;;11.10;10.47;;;18.60;58.20;;;;;;5117564;28;20473;-59
2023/04/17 01:28:59;;;;;;;11.67;11.07;;;18.60;58.30;;;;;;5116521;28;20916;-57
2023/04/17 01:31:27;;;;;;;11.47;10.90;;;18.60;58.20;;;;;;5116828;28;20476;-53
2023/04/17 01:33:54;;;;;;;10.00;9.60;;;18.60;58.30;;;;;;5117766;28;20483;-54
2023/04/17 01:36:21;;;;;;;10.33;9.83;;;18.60;58.30;;;;;;5116948;28;20924;-57
2023/04/17 01:38:48;;;;;;;11.77;11.03;;;18.60;58.30;;;;;;5096008;28;20518;-53
2023/04/17 01:41:16;;;;;;;11.27;10.70;;;18.60;58.30;;;;;;5095997;28;20486;-56
2023/04/17 01:43:45;;;;;;;10.90;10.40;;;18.60;58.30;;;;;;5095917;28;20897;-56
2023/04/17 01:46:12;;;;;;;10.33;9.93;;;18.60;58.30;;;;;;5095977;28;20446;-56
2023/04/17 01:48:39;;;;;;;11.33;10.70;;;18.60;58.30;;;;;;5113889;28;20517;-57
2023/04/17 01:51:06;;;;;;;13.40;12.70;;;18.60;58.30;;;;;;5116894;28;20442;-54
2023/04/17 01:53:34;;;;;;;11.40;10.87;;;18.60;58.40;;;;;;5116515;28;20480;-53
2023/04/17 01:56:01;;;;;;;11.10;10.50;;;18.60;58.40;;;;;;5117044;28;20496;-52
2023/04/17 01:58:29;;;;;;;11.03;10.43;;;18.60;58.40;;;;;;5099280;28;20821;-54
2023/04/17 02:00:56;;;;;;;12.20;11.60;;;18.60;58.40;;;;;;5097057;28;20446;-56
2023/04/17 02:03:23;;;;;;;11.03;10.47;;;18.60;58.40;;;;;;5096189;28;20981;-57
2023/04/17 02:05:52;;;;;;;11.00;10.50;;;18.60;58.40;;;;;;5095592;28;20457;-57
2023/04/17 02:08:19;;;;;;;11.57;10.87;;;18.60;58.40;;;;;;5110203;28;20513;-55
2023/04/17 02:10:46;;;;;;;10.40;9.90;;;18.60;58.40;;;;;;5115989;28;20478;-58
2023/04/17 02:13:13;;;;;;;11.07;10.57;;;18.60;58.40;;;;;;5116063;28;20484;-53
2023/04/17 02:15:42;;;;;;;12.67;11.87;;;18.60;58.40;;;;;;5116342;28;20492;-55
2023/04/17 02:18:09;;;;;;;11.57;11.07;;;18.60;58.40;;;;;;5101358;28;20490;-54
2023/04/17 02:20:37;;;;;;;10.90;10.27;;;18.60;58.40;;;;;;5111949;28;20577;-56
2023/04/17 02:23:05;;;;;;;12.20;11.53;;;18.60;58.50;;;;;;5095540;28;20438;-53
2023/04/17 02:25:32;;;;;;;12.33;11.63;;;18.60;58.50;;;;;;5095403;28;20533;-54
2023/04/17 02:27:59;;;;;;;11.60;10.90;;;18.60;58.40;;;;;;5099660;28;20502;-54
2023/04/17 02:30:27;;;;;;;12.80;12.17;;;18.60;58.40;;;;;;5112419;28;20512;-56
2023/04/17 02:32:56;;;;;;;11.90;10.87;;;18.60;58.40;;;;;;5116139;28;20484;-53
2023/04/17 02:35:24;;;;;;;12.30;11.67;;;18.60;58.50;;;;;;5115781;28;20490;-55
2023/04/17 02:37:51;;;;;;;11.17;10.60;;;18.60;58.40;;;;;;5104296;28;20875;-56
2023/04/17 02:40:18;;;;;;;11.67;11.07;;;18.60;58.50;;;;;;5095047;28;20449;-54
2023/04/17 02:42:45;;;;;;;11.17;10.67;;;18.60;58.40;;;;;;5094554;28;20478;-54
2023/04/17 02:45:12;;;;;;;11.20;10.60;;;18.60;58.50;;;;;;5094319;28;20478;-54
2023/04/17 02:47:39;;;;;;;11.67;11.07;;;18.60;58.50;;;;;;5103373;28;20492;-56
2023/04/17 02:50:09;;;;;;;10.83;10.33;;;18.60;58.50;;;;;;5114855;28;21104;-53
2023/04/17 02:52:35;;;;;;;11.53;10.97;;;18.60;58.50;;;;;;5114709;28;20955;-54
2023/04/17 02:55:02;;;;;;;11.07;10.57;;;18.60;58.50;;;;;;5114370;28;20477;-53
2023/04/17 02:57:29;;;;;;;11.50;10.83;;;18.60;58.50;;;;;;5106628;28;20442;-55
2023/04/17 02:59:56;;;;;;;12.23;11.53;;;18.60;58.50;;;;;;5095477;28;20434;-55
2023/04/17 03:02:23;;;;;;;11.37;10.87;;;18.60;58.50;;;;;;5095264;28;20474;-54
2023/04/17 03:04:50;;;;;;;12.40;11.70;;;18.60;58.50;;;;;;5094148;28;20894;-56
2023/04/17 03:07:22;;;;;;;11.97;11.10;;;18.50;58.40;;;;;;5099352;28;20484;-53
2023/04/17 03:09:52;;;;;;;11.60;10.90;;;18.50;58.40;;;;;;5114286;28;20863;-54
2023/04/17 03:12:19;;;;;;;11.73;11.20;;;18.60;58.50;;;;;;5114604;28;20448;-56
2023/04/17 03:14:46;;;;;;;11.33;10.83;;;18.60;58.50;;;;;;5114606;28;20494;-56
2023/04/17 03:17:14;;;;;;;10.80;10.20;;;18.60;58.60;;;;;;5109025;28;20579;-55
2023/04/17 03:19:41;;;;;;;11.43;10.80;;;18.50;58.50;;;;;;5094081;28;20473;-57
2023/04/17 03:22:08;;;;;;;11.93;11.33;;;18.50;58.50;;;;;;5093925;28;20470;-54
2023/04/17 03:24:37;;;;;;;11.80;11.20;;;18.50;58.60;;;;;;5093995;28;20485;-56
2023/04/17 03:27:04;;;;;;;11.47;10.90;;;18.50;58.50;;;;;;5096911;28;20480;-56
2023/04/17 03:29:31;;;;;;;12.07;11.37;;;18.50;58.50;;;;;;5114116;28;20557;-57
2023/04/17 03:31:57;;;;;;;10.73;10.33;;;18.50;58.60;;;;;;5114505;28;20477;-56
2023/04/17 03:34:25;;;;;;;11.80;11.30;;;18.50;58.60;;;;;;5114220;28;20469;-54
2023/04/17 03:36:52;;;;;;;11.23;10.73;;;18.50;58.60;;;;;;5113054;28;20445;-54
2023/04/17 03:39:19;;;;;;;11.27;10.73;;;18.50;58.60;;;;;;5093790;28;20502;-54
2023/04/17 03:41:47;;;;;;;12.23;11.63;;;18.50;58.60;;;;;;5093832;28;20450;-56
2023/04/17 03:44:16;;;;;;;11.87;11.10;;;18.50;58.50;;;;;;5093832;28;20474;-56
2023/04/17 03:46:43;;;;;;;12.57;12.07;;;18.50;58.60;;;;;;5107458;28;20976;-56
2023/04/17 03:49:10;;;;;;;12.43;11.83;;;18.50;58.50;;;;;;5114184;28;20523;-55
2023/04/17 03:51:37;;;;;;;11.53;10.93;;;18.50;58.60;;;;;;5114479;28;20474;-57
2023/04/17 03:54:04;;;;;;;12.00;11.50;;;18.50;58.60;;;;;;5114237;28;20964;-57
2023/04/17 03:56:31;;;;;;;11.87;11.17;;;18.50;58.60;;;;;;5102401;28;20478;-55
2023/04/17 03:58:59;;;;;;;12.00;11.40;;;18.50;58.60;;;;;;5094904;28;20992;-56
2023/04/17 04:01:27;;;;;;;12.40;11.80;;;18.50;58.60;;;;;;5095014;28;21008;-56
2023/04/17 04:03:54;;;;;;;12.43;11.83;;;18.50;58.60;;;;;;5094637;28;20442;-57
2023/04/17 04:06:21;;;;;;;12.17;11.57;;;18.50;58.60;;;;;;5103831;28;20467;-56
2023/04/17 04:08:48;;;;;;;12.47;11.83;;;18.50;58.60;;;;;;5113758;28;20500;-53
2023/04/17 04:11:15;;;;;;;12.30;11.60;;;18.50;58.70;;;;;;5113979;28;20473;-57
2023/04/17 04:13:42;;;;;;;12.70;12.10;;;18.50;58.70;;;;;;5118650;28;20480;-55
2023/04/17 04:16:10;;;;;;;12.03;11.53;;;18.50;58.70;;;;;;5114085;28;20442;-54
2023/04/17 04:18:37;;;;;;;12.20;11.57;;;18.50;58.60;;;;;;5097473;28;20553;-55
2023/04/17 04:21:04;;;;;;;13.00;12.40;;;18.50;58.60;;;;;;5098236;28;20466;-58
2023/04/17 04:23:32;;;;;;;13.27;12.47;;;18.50;58.60;;;;;;5098155;28;20446;-57
2023/04/17 04:26:00;;;;;;;13.97;13.10;;;18.50;59.00;;;;;;5104431;28;20483;-53
2023/04/17 04:28:29;;;;;;;14.33;13.33;;;18.50;60.00;;;;;;5118211;28;20522;-56
2023/04/17 04:30:57;;;;;;;13.20;12.40;;;18.60;61.00;;;;;;5118206;28;20488;-56
2023/04/17 04:33:26;;;;;;;12.87;12.10;;;18.60;61.90;;;;;;5118486;28;20437;-55
2023/04/17 04:35:55;;;;;;;16.10;13.40;;;18.60;61.90;;;;;;5115892;28;20936;-53
2023/04/17 04:38:29;;;;;;;15.63;13.63;;;18.60;63.40;;;;;;5077173;28;20478;-53
2023/04/17 04:41:00;;;;;;;14.53;13.33;;;18.70;64.20;;;;;;5079184;28;20887;-54
2023/04/17 04:43:28;;;;;;;17.77;14.67;;;18.70;66.80;;;;;;5115362;28;20451;-56
2023/04/17 04:45:55;;;;;;;15.10;13.93;;;18.70;70.50;;;;;;5118290;28;20452;-56
2023/04/17 04:48:22;;;;;;;17.20;15.87;;;18.70;71.90;;;;;;5118605;28;20976;-53
2023/04/17 04:50:51;;;;;;;16.77;14.57;;;18.60;72.40;;;;;;5118672;28;20519;-55
2023/04/17 04:53:17;;;;;;;14.30;13.30;;;18.60;72.70;;;;;;5119171;28;20880;-56
2023/04/17 04:55:44;;;;;;;16.30;14.77;;;18.60;72.40;;;;;;5119265;28;20477;-54
2023/04/17 04:58:11;;;;;;;15.93;14.83;;;18.60;71.50;;;;;;5118468;28;20536;-55
2023/04/17 05:00:38;;;;;;;16.13;14.83;;;18.60;71.70;;;;;;5117423;28;20469;-54
2023/04/17 05:03:05;;;;;;;19.37;14.93;;;18.60;71.40;;;;;;5117270;28;21014;-58
2023/04/17 05:05:32;;;;;;;15.13;13.87;;;18.60;71.20;;;;;;5118376;28;20452;-56
2023/04/17 05:08:00;;;;;;;15.57;14.33;;;18.60;70.80;;;;;;5118406;28;20882;-58
2023/04/17 05:10:27;;;;;;;14.20;12.90;;;18.60;70.30;;;;;;5119081;28;20534;-58
2023/04/17 05:12:54;;;;;;;14.30;13.20;;;18.60;70.30;;;;;;5117930;28;20469;-57
2023/04/17 05:15:21;;;;;;;14.77;13.53;;;18.60;69.90;;;;;;5118460;28;20454;-57
2023/04/17 05:17:48;;;;;;;14.23;13.30;;;18.60;69.50;;;;;;5116971;28;20501;-55
2023/04/17 05:20:15;;;;;;;14.10;13.20;;;18.60;69.20;;;;;;5117907;28;20473;-53
2023/04/17 05:22:42;;;;;;;16.07;14.60;;;18.60;68.90;;;;;;5116742;28;20437;-57
2023/04/17 05:25:10;;;;;;;15.33;14.07;;;18.60;68.70;;;;;;5116534;28;20859;-57
2023/04/17 05:27:37;;;;;;;14.70;13.50;;;18.60;68.20;;;;;;5116992;28;20503;-53
2023/04/17 05:30:05;;;;;;;13.90;13.10;;;18.60;68.00;;;;;;5117011;28;20487;-57
2023/04/17 05:32:33;;;;;;;15.30;13.97;;;18.60;67.80;;;;;;5116190;28;20858;-58
2023/04/17 05:35:00;;;;;;;15.77;14.50;;;18.60;67.50;;;;;;5116364;28;20498;-54
2023/04/17 05:37:27;;;;;;;14.53;13.53;;;18.60;67.30;;;;;;5116254;28;20473;-58
2023/04/17 05:39:54;;;;;;;14.13;13.30;;;18.60;67.00;;;;;;5115074;28;20470;-57
2023/04/17 05:42:22;;;;;;;14.03;13.13;;;18.60;66.90;;;;;;5114080;28;20480;-56
2023/04/17 05:44:49;;;;;;;13.33;12.63;;;18.60;66.70;;;;;;5114135;28;20528;-58
2023/04/17 05:47:16;;;;;;;14.23;12.80;;;18.60;66.40;;;;;;5114138;28;20485;-54
2023/04/17 05:49:43;;;;;;;15.07;13.87;;;18.60;67.00;;;;;;5113765;28;21015;-58
2023/04/17 05:52:10;;;;;;;15.20;13.87;;;18.60;66.10;;;;;;5113918;28;20502;-58
2023/04/17 05:54:37;;;;;;;14.77;13.57;;;18.60;65.90;;;;;;5113815;28;20477;-56
2023/04/17 05:57:04;;;;;;;13.80;13.00;;;18.60;65.70;;;;;;5113700;28;20488;-55
2023/04/17 05:59:32;;;;;;;13.67;12.73;;;18.60;65.60;;;;;;5113604;28;20496;-57
2023/04/17 06:01:59;;;;;;;14.40;12.83;;;18.60;65.40;;;;;;5113783;28;20495;-56
2023/04/17 06:04:28;;;;;;;14.90;13.47;;;18.60;65.30;;;;;;5113788;28;20473;-57
2023/04/17 06:06:54;;;;;;;13.53;12.73;;;18.60;65.20;;;;;;5113586;28;20453;-56
2023/04/17 06:09:21;;;;;;;14.50;13.30;;;18.60;65.00;;;;;;5113564;28;21056;-58
2023/04/17 06:11:48;;;;;;;13.33;12.57;;;18.60;64.80;;;;;;5113719;28;20469;-57
2023/04/17 06:14:15;;;;;;;13.53;12.73;;;18.60;64.70;;;;;;5113551;28;20489;-59
2023/04/17 06:16:43;;;;;;;13.27;12.53;;;18.60;64.60;;;;;;5113363;28;20779;-57
2023/04/17 06:19:10;;;;;;;15.00;13.80;;;18.60;64.50;;;;;;5113332;28;20557;-55
2023/04/17 06:21:37;;;;;;;17.00;15.73;;;18.60;64.30;;;;;;5113381;28;20778;-55
2023/04/17 06:24:04;;;;;;;14.07;13.00;;;18.60;64.20;;;;;;5113351;28;20477;-55
2023/04/17 06:26:31;;;;;;;14.17;13.33;;;18.60;64.10;;;;;;5113239;28;20870;-56
2023/04/17 06:28:59;;;;;;;13.83;12.83;;;18.60;64.00;;;;;;5113075;28;20894;-56
2023/04/17 06:31:26;;;;;;;13.90;13.00;;;18.60;63.90;;;;;;5113156;28;20481;-56
2023/04/17 06:33:54;;;;;;;13.40;12.60;;;18.60;63.70;;;;;;5113225;28;20506;-57
2023/04/17 06:36:21;;;;;;;14.07;13.27;;;18.60;63.60;;;;;;5112833;28;20469;-57
2023/04/17 06:38:48;;;;;;;13.73;12.97;;;18.60;63.50;;;;;;5112534;28;20516;-54
2023/04/17 06:41:15;;;;;;;13.60;12.80;;;18.60;63.30;;;;;;5113076;28;20473;-57
2023/04/17 06:43:43;;;;;;;14.47;13.53;;;18.60;63.30;;;;;;5113190;28;20450;-55
2023/04/17 06:46:10;;;;;;;12.90;12.30;;;18.60;63.20;;;;;;5112902;28;20484;-57
2023/04/17 06:48:37;;;;;;;14.70;13.13;;;18.60;63.10;;;;;;5112619;28;20837;-56
2023/04/17 06:51:05;;;;;;;13.20;12.30;;;18.60;63.10;;;;;;5112827;28;20512;-57
2023/04/17 06:53:32;;;;;;;14.43;13.53;;;18.60;63.00;;;;;;5112837;28;20535;-57
2023/04/17 06:55:59;;;;;;;12.93;12.23;;;18.60;62.90;;;;;;5112861;28;20506;-55
2023/04/17 06:58:26;;;;;;;13.13;12.53;;;18.60;62.80;;;;;;5112671;28;20501;-58
2023/04/17 07:00:53;;;;;;;13.00;12.20;;;18.60;62.80;;;;;;5112730;28;20455;-57
2023/04/17 07:03:20;;;;;;;11.93;11.33;;;18.60;62.50;;;;;;5113010;28;21013;-57
2023/04/17 07:05:47;;;;;;;14.00;13.10;;;18.60;62.50;;;;;;5112773;28;20854;-56
2023/04/17 07:08:17;;;;;;;13.47;12.57;;;18.60;62.40;;;;;;5112321;28;20465;-57
2023/04/17 07:10:44;;;;;;;14.00;13.27;;;18.60;62.40;;;;;;5112647;28;20478;-58
2023/04/17 07:13:11;;;;;;;12.90;12.23;;;18.60;62.30;;;;;;5112765;28;20852;-56
2023/04/17 07:15:38;;;;;;;12.67;11.97;;;18.60;62.20;;;;;;5112439;28;20871;-58
2023/04/17 07:18:05;;;;;;;12.90;12.10;;;18.60;62.20;;;;;;5112355;28;20496;-57
2023/04/17 07:20:32;;;;;;;13.57;12.83;;;18.60;62.10;;;;;;5112480;28;20477;-57
2023/04/17 07:22:59;;;;;;;13.80;12.70;;;18.60;62.10;;;;;;5112365;28;20455;-57
2023/04/17 07:25:27;;;;;;;12.90;12.20;;;18.60;62.00;;;;;;5112626;28;20477;-57
2023/04/17 07:27:55;;;;;;;13.30;12.60;;;18.60;62.00;;;;;;5112200;28;20498;-55
2023/04/17 07:30:22;;;;;;;13.60;12.90;;;18.60;62.70;;;;;;5112595;28;20586;-55
2023/04/17 07:32:49;;;;;;;13.07;12.47;;;18.60;61.80;;;;;;5112510;28;20449;-58
2023/04/17 07:35:16;;;;;;;13.20;12.57;;;18.60;61.80;;;;;;5112318;28;20975;-59
2023/04/17 07:37:43;;;;;;;12.90;12.30;;;18.60;61.80;;;;;;5111514;28;20507;-59
2023/04/17 07:40:10;;;;;;;13.77;12.90;;;18.60;61.70;;;;;;5112044;28;20488;-59
2023/04/17 07:42:39;;;;;;;12.77;12.13;;;18.60;61.60;;;;;;5112110;28;20881;-56
2023/04/17 07:45:06;;;;;;;14.43;13.73;;;18.60;61.60;;;;;;5112301;28;20528;-58
2023/04/17 07:47:33;;;;;;;13.20;12.50;;;18.60;61.60;;;;;;5110897;28;20500;-59
2023/04/17 07:50:00;;;;;;;14.13;13.07;;;18.60;61.50;;;;;;5112686;28;20480;-57
2023/04/17 07:52:27;;;;;;;14.13;13.20;;;18.60;61.50;;;;;;5111896;28;20529;-56
2023/04/17 07:54:55;;;;;;;14.20;13.33;;;18.60;61.40;;;;;;5112233;28;20477;-58
2023/04/17 07:57:25;;;;;;;14.73;13.50;;;18.60;61.40;;;;;;5111686;28;20477;-56
2023/04/17 07:59:53;;;;;;;13.07;12.57;;;18.60;61.30;;;;;;5111893;28;20449;-53
2023/04/17 08:02:20;;;;;;;13.53;12.93;;;18.60;61.30;;;;;;5112166;28;20480;-55
2023/04/17 08:04:47;;;;;;;14.20;13.20;;;18.60;61.30;;;;;;5111787;28;20956;-56
2023/04/17 08:07:14;;;;;;;14.27;13.57;;;18.60;61.30;;;;;;5111610;28;20940;-58
2023/04/17 08:09:40;;;;;;;14.50;13.70;;;18.60;61.20;;;;;;5111729;28;20480;-56
2023/04/17 08:12:07;;;;;;;13.27;12.67;;;18.60;61.10;;;;;;5111845;28;20909;-54
2023/04/17 08:14:34;;;;;;;15.03;14.33;;;18.60;61.10;;;;;;5111737;28;20476;-53
2023/04/17 08:17:03;;;;;;;13.33;12.73;;;18.60;61.00;;;;;;5111586;28;20451;-53
2023/04/17 08:19:30;;;;;;;13.00;12.40;;;18.60;61.00;;;;;;5111629;28;20504;-53
2023/04/17 08:22:02;;;;;;;13.73;13.03;;;18.50;60.90;;;;;;5111678;28;20865;-56
2023/04/17 08:24:30;;;;;;;12.80;12.40;;;18.60;60.90;;;;;;5111785;28;20941;-55
2023/04/17 08:26:57;;;;;;;13.13;12.63;;;18.60;60.80;;;;;;5111543;28;20449;-55
2023/04/17 08:29:24;;;;;;;13.13;12.50;;;18.60;60.80;;;;;;5111509;28;20915;-58
2023/04/17 08:31:51;;;;;;;13.20;12.60;;;18.60;60.80;;;;;;5111515;28;20948;-54
2023/04/17 08:34:20;;;;;;;13.90;13.20;;;18.60;60.70;;;;;;5111650;28;20516;-53
2023/04/17 08:36:47;;;;;;;14.43;13.77;;;18.60;60.70;;;;;;5111533;28;20537;-56
2023/04/17 08:39:15;;;;;;;13.57;12.97;;;18.60;60.70;;;;;;5111639;28;21011;-58
2023/04/17 08:41:48;;;;;;;14.00;13.30;;;18.60;60.70;;;;;;5111462;28;20532;-53
2023/04/17 08:44:17;;;;;;;13.10;12.60;;;18.60;60.70;;;;;;5111578;28;20437;-55
2023/04/17 08:46:45;;;;;;;13.63;13.03;;;18.60;60.60;;;;;;5111403;28;20445;-56
2023/04/17 08:49:11;;;;;;;14.60;13.90;;;18.60;60.60;;;;;;5111303;28;20540;-55
2023/04/17 08:51:40;;;;;;;14.27;13.67;;;18.60;60.60;;;;;;5111390;28;20919;-53
2023/04/17 08:54:07;;;;;;;13.90;13.20;;;18.60;60.60;;;;;;5111386;28;20818;-54
2023/04/17 08:56:34;;;;;;;13.93;13.33;;;18.60;60.50;;;;;;5111315;28;20484;-57
2023/04/17 08:59:01;;;;;;;13.63;13.03;;;18.60;60.50;;;;;;5113862;28;20548;-56
2023/04/17 09:01:28;;;;;;;14.17;13.47;;;18.60;60.50;;;;;;5114944;28;20517;-56
2023/04/17 09:03:56;;;;;;;13.80;13.20;;;18.60;60.30;;;;;;5115093;28;20498;-55
2023/04/17 09:06:23;;;;;;;13.97;13.30;;;18.60;60.30;;;;;;5115201;28;20610;-55
2023/04/17 09:08:59;;;;;;;14.60;13.83;;;18.60;60.30;;;;;;5114622;28;20496;-58
2023/04/17 09:11:26;;;;;;;13.50;12.80;;;18.60;60.20;;;;;;5115215;28;20563;-55
2023/04/17 09:13:54;;;;;;;13.00;12.50;;;18.60;60.20;;;;;;5114825;28;20473;-55
2023/04/17 09:16:23;;;;;;;14.00;13.30;;;18.60;60.20;;;;;;5114651;28;20532;-57
2023/04/17 09:18:50;;;;;;;14.20;13.50;;;18.60;60.10;;;;;;5114365;28;20469;-56
2023/04/17 09:21:18;;;;;;;13.93;13.33;;;18.60;60.10;;;;;;5114878;28;20477;-56
2023/04/17 09:23:50;;;;;;;14.43;13.73;;;18.60;60.10;;;;;;5114537;28;20442;-54
2023/04/17 09:26:20;;;;;;;14.13;13.53;;;18.60;60.00;;;;;;5114447;28;20446;-54
2023/04/17 09:29:02;;;;;;;13.80;13.13;;;18.60;60.00;;;;;;5114201;28;20493;-55
2023/04/17 09:31:33;;;;;;;14.67;13.87;;;18.60;60.70;;;;;;5114360;28;20481;-53
2023/04/17 09:34:01;;;;;;;13.80;13.20;;;18.60;59.90;;;;;;5114361;28;20450;-53
2023/04/17 09:36:30;;;;;;;14.10;13.50;;;18.60;59.90;;;;;;5114378;28;20520;-54
2023/04/17 09:38:58;;;;;;;14.07;13.33;;;18.60;59.90;;;;;;5113952;28;20473;-54
2023/04/17 09:41:28;;;;;;;14.23;13.63;;;18.60;59.90;;;;;;5114233;28;20522;-54
2023/04/17 09:43:59;;;;;;;14.43;13.83;;;18.60;59.90;;;;;;5114226;28;20843;-55
2023/04/17 09:46:37;;;;;;;13.10;12.60;;;18.60;59.80;;;;;;5114083;28;20452;-55
2023/04/17 09:49:13;;;;;;;16.07;15.00;;;18.70;59.90;;;;;;5113966;28;20462;-55
2023/04/17 09:51:41;;;;;;;13.67;13.07;;;18.70;59.80;;;;;;5114203;28;20488;-57
2023/04/17 09:54:11;;;;;;;14.03;13.43;;;18.70;59.80;;;;;;5113987;28;20484;-57
2023/04/17 09:56:40;;;;;;;14.03;13.43;;;18.70;59.80;;;;;;5113784;28;20449;-55
2023/04/17 09:59:07;;;;;;;13.27;12.77;;;18.60;59.70;;;;;;5113862;28;20561;-53
2023/04/17 10:01:36;;;;;;;14.47;13.77;;;18.70;59.80;;;;;;5113848;28;20465;-56
2023/04/17 10:04:04;;;;;;;13.43;12.93;;;18.70;59.70;;;;;;5113642;28;20477;-55
2023/04/17 10:06:33;;;;;;;14.33;13.73;;;18.70;59.70;;;;;;5113848;28;20476;-55
2023/04/17 10:09:00;;;;;;;14.97;14.27;;;18.70;59.60;;;;;;5113235;28;21031;-53
2023/04/17 10:11:31;;;;;;;13.20;12.70;;;18.70;59.70;;;;;;5113470;28;20513;-60
2023/04/17 10:14:09;;;;;;;14.00;13.40;;;18.70;59.60;;;;;;5114056;28;20484;-54
2023/04/17 10:16:37;;;;;;;13.50;12.90;;;18.70;59.60;;;;;;5113661;28;20444;-56
2023/04/17 10:19:29;;;;;;;14.40;13.70;;;18.70;59.60;;;;;;5113627;28;20980;-54
2023/04/17 10:22:42;;;;;;;13.30;12.80;;;18.70;59.50;;;;;;5113952;28;20798;-56
2023/04/17 10:25:21;;;;;;;13.63;13.13;;;18.70;59.50;;;;;;5065625;28;20449;-55
2023/04/17 10:27:58;;;;;;;14.27;13.67;;;18.70;59.50;;;;;;5113185;28;20496;-56
2023/04/17 10:30:49;;;;;;;13.90;13.30;;;18.70;59.50;;;;;;5113551;28;20970;-57
2023/04/17 10:33:24;;;;;;;13.60;13.10;;;18.70;59.50;;;;;;5113248;28;20473;-55
2023/04/17 10:35:52;;;;;;;13.20;12.70;;;18.70;59.50;;;;;;5113170;28;20441;-56
2023/04/17 10:38:37;;;;;;;13.77;13.20;;;18.70;59.50;;;;;;5112698;28;20556;-55
2023/04/17 10:41:09;;;;;;;13.57;13.07;;;18.70;59.40;;;;;;5113051;28;20477;-56
2023/04/17 10:43:41;;;;;;;13.93;13.33;;;18.70;59.40;;;;;;5113003;28;20437;-56
2023/04/17 10:46:12;;;;;;;14.20;13.70;;;18.70;59.40;;;;;;5112948;28;20437;-56
2023/04/17 10:48:45;;;;;;;13.43;12.97;;;18.70;59.40;;;;;;5112571;28;20488;-56
2023/04/17 10:51:40;;;;;;;14.10;13.50;;;18.70;59.40;;;;;;5112795;28;20513;-55
2023/04/17 10:54:09;;;;;;;14.10;13.50;;;18.70;59.30;;;;;;5112769;28;20951;-57
2023/04/17 10:56:38;;;;;;;13.30;12.80;;;18.70;59.30;;;;;;5112619;28;20445;-58
2023/04/17 10:59:06;;;;;;;14.10;13.40;;;18.70;59.20;;;;;;5112568;28;20500;-55
2023/04/17 11:01:39;;;;;;;13.20;12.80;;;18.70;59.20;;;;;;5112592;28;20945;-56
2023/04/17 11:04:07;;;;;;;13.93;13.43;;;18.80;59.20;;;;;;5112604;28;20446;-57
2023/04/17 11:06:38;;;;;;;14.30;13.63;;;18.70;59.20;;;;;;5112504;28;20484;-56
2023/04/17 11:09:09;;;;;;;14.60;13.90;;;18.80;59.20;;;;;;5112419;28;20497;-56
2023/04/17 11:11:38;;;;;;;14.50;13.80;;;18.80;59.20;;;;;;5112753;28;20855;-58
2023/04/17 11:14:08;;;;;;;14.53;14.03;;;18.80;59.20;;;;;;5112436;28;20821;-54
2023/04/17 11:16:37;;;;;;;14.50;13.80;;;18.80;59.20;;;;;;5112307;28;20442;-57
2023/04/17 11:19:05;;;;;;;14.20;13.43;;;18.80;59.20;;;;;;5112372;28;20520;-55
2023/04/17 11:21:32;;;;;;;14.00;13.40;;;18.80;59.10;;;;;;5112186;28;20474;-54
2023/04/17 11:24:02;;;;;;;13.47;12.87;;;18.80;59.10;;;;;;5112294;28;20447;-55
2023/04/17 11:26:29;;;;;;;13.60;13.10;;;18.70;59.00;;;;;;5112389;28;20476;-54
2023/04/17 11:28:55;;;;;;;13.27;12.67;;;18.80;59.00;;;;;;5112057;28;20602;-55
2023/04/17 11:31:22;;;;;;;13.77;13.17;;;18.80;59.00;;;;;;5112128;28;20568;-57
2023/04/17 11:33:51;;;;;;;13.57;13.07;;;18.80;59.00;;;;;;5112107;28;21029;-54
2023/04/17 11:36:18;;;;;;;13.60;12.90;;;18.80;58.90;;;;;;5112118;28;20478;-54
2023/04/17 11:38:47;;;;;;;13.27;12.77;;;18.80;58.90;;;;;;5112350;28;20512;-50
2023/04/17 11:41:14;;;;;;;13.70;13.20;;;18.80;58.90;;;;;;5112067;28;20449;-51
2023/04/17 11:43:42;;;;;;;13.73;13.13;;;18.80;58.90;;;;;;5112065;28;20441;-50
2023/04/17 11:46:09;;;;;;;13.20;12.70;;;18.80;58.90;;;;;;5111968;28;20456;-51
2023/04/17 11:48:36;;;;;;;13.50;13.00;;;18.80;58.90;;;;;;5111782;28;20469;-51
2023/04/17 11:51:05;;;;;;;13.30;12.73;;;18.80;58.80;;;;;;5111900;28;20446;-52
2023/04/17 11:53:35;;;;;;;13.27;12.77;;;18.80;58.80;;;;;;5112028;28;20445;-50
2023/04/17 11:56:12;;;;;;;13.77;13.27;;;18.90;58.90;;;;;;5111873;28;20446;-53
2023/04/17 11:58:46;;;;;;;14.53;13.70;;;18.80;58.80;;;;;;5111669;28;20468;-50
2023/04/17 12:01:14;;;;;;;13.00;12.50;;;18.90;58.80;;;;;;5111935;28;20456;-55
2023/04/17 12:03:40;;;;;;;12.93;12.40;;;18.90;58.80;;;;;;5111947;28;20820;-56
2023/04/17 12:06:10;;;;;;;13.80;13.30;;;18.90;58.80;;;;;;5111959;28;20445;-50
2023/04/17 12:08:45;;;;;;;12.87;12.37;;;18.90;58.80;;;;;;5111568;28;20848;-50
2023/04/17 12:11:17;;;;;;;12.60;12.20;;;18.90;59.40;;;;;;5111709;28;20449;-52
2023/04/17 12:13:44;;;;;;;14.67;13.67;;;18.90;58.70;;;;;;5111804;28;20514;-54
2023/04/17 12:16:12;;;;;;;14.20;13.50;;;18.90;58.70;;;;;;5111873;28;20477;-55
2023/04/17 12:18:39;;;;;;;13.47;12.97;;;18.90;58.70;;;;;;5111510;28;20860;-52
2023/04/17 12:21:06;;;;;;;14.50;13.80;;;18.90;58.60;;;;;;5111677;28;20528;-51
2023/04/17 12:23:34;;;;;;;13.67;13.17;;;18.90;58.60;;;;;;5111765;28;20476;-53
2023/04/17 12:26:01;;;;;;;13.10;12.60;;;18.90;58.60;;;;;;5111638;28;20449;-51
2023/04/17 12:28:29;;;;;;;13.13;12.50;;;18.90;58.60;;;;;;5111290;28;20892;-50
2023/04/17 12:30:56;;;;;;;13.17;12.67;;;18.90;58.60;;;;;;5111595;28;20481;-50
2023/04/17 12:33:23;;;;;;;13.17;12.57;;;19.00;58.70;;;;;;5113300;28;20572;-53